Wetterdaten: Woche 31.08.15 - 06.09.15 (KW36)
Datum Zeit Temp. A. Feuchte A. Luftdruck Regen Wind Richtung Sonnenschein ET UV Solar Taupunkt Windchill Windben
31.08.2015 00:00 19,3 C 86 % 1015,4 hPa 0,0 l/m 0,0 km/h (0 Bft) N 0,00 h 0,025 mm 0,0 UV-I 0 W/m 16,9 C 19,3 C 0,0 km/h (0 Bft)
31.08.2015 01:00 18,5 C 89 % 1014,9 hPa 0,0 l/m 0,0 km/h (0 Bft) N 0,00 h 0,000 mm 0,0 UV-I 0 W/m 16,6 C 18,5 C 0,0 km/h (0 Bft)
31.08.2015 02:00 18,5 C 91 % 1014,6 hPa 0,0 l/m 0,0 km/h (0 Bft) N 0,00 h 0,000 mm 0,0 UV-I 0 W/m 17,0 C 18,5 C 0,0 km/h (0 Bft)
31.08.2015 03:00 17,5 C 91 % 1014,3 hPa 0,0 l/m 0,0 km/h (0 Bft) N 0,00 h 0,000 mm 0,0 UV-I 0 W/m 16,0 C 17,5 C 0,0 km/h (0 Bft)
31.08.2015 04:00 16,5 C 93 % 1014,0 hPa 0,0 l/m 0,0 km/h (0 Bft) N 0,00 h 0,000 mm 0,0 UV-I 0 W/m 15,3 C 16,5 C 0,0 km/h (0 Bft)
31.08.2015 05:00 16,1 C 93 % 1014,0 hPa 0,0 l/m 0,0 km/h (0 Bft) N 0,00 h 0,000 mm 0,0 UV-I 0 W/m 15,0 C 16,1 C 0,0 km/h (0 Bft)
31.08.2015 06:00 15,9 C 94 % 1014,1 hPa 0,0 l/m 0,0 km/h (0 Bft) N 0,00 h 0,000 mm 0,0 UV-I 9 W/m 14,9 C 15,9 C 0,0 km/h (0 Bft)
31.08.2015 07:00 16,4 C 93 % 1014,2 hPa 0,0 l/m 0,0 km/h (0 Bft) N 0,53 h 0,000 mm 0,5 UV-I 59 W/m 15,2 C 16,4 C 0,0 km/h (0 Bft)
31.08.2015 08:00 19,8 C 86 % 1013,7 hPa 0,0 l/m 0,0 km/h (0 Bft) N 1,00 h 0,025 mm 0,8 UV-I 252 W/m 17,3 C 19,8 C 0,1 km/h (0 Bft)
31.08.2015 09:00 24,2 C 72 % 1013,2 hPa 0,0 l/m 0,1 km/h (0 Bft) N 1,00 h 0,152 mm 1,6 UV-I 419 W/m 18,9 C 24,2 C 0,5 km/h (0 Bft)
31.08.2015 10:00 28,5 C 57 % 1012,6 hPa 0,0 l/m 0,2 km/h (0 Bft) N 1,00 h 0,254 mm 2,7 UV-I 557 W/m 19,1 C 28,5 C 0,6 km/h (0 Bft)
31.08.2015 11:00 30,9 C 51 % 1012,4 hPa 0,0 l/m 0,9 km/h (0 Bft) N 1,00 h 0,381 mm 3,7 UV-I 660 W/m 19,5 C 30,9 C 2,7 km/h (1 Bft)
31.08.2015 12:00 32,5 C 45 % 1011,9 hPa 0,0 l/m 1,3 km/h (1 Bft) N 1,00 h 0,457 mm 4,3 UV-I 724 W/m 19,0 C 32,5 C 3,4 km/h (1 Bft)
31.08.2015 13:00 33,7 C 35 % 1011,2 hPa 0,0 l/m 3,0 km/h (1 Bft) W-SW 1,00 h 0,508 mm 4,7 UV-I 748 W/m 16,1 C 33,7 C 6,7 km/h (2 Bft)
31.08.2015 14:00 33,8 C 31 % 1010,8 hPa 0,0 l/m 2,9 km/h (1 Bft) S 1,00 h 0,559 mm 4,1 UV-I 712 W/m 14,4 C 33,8 C 6,9 km/h (2 Bft)
31.08.2015 15:00 33,2 C 32 % 1010,2 hPa 0,0 l/m 2,8 km/h (1 Bft) W-SW 1,00 h 0,533 mm 2,6 UV-I 453 W/m 14,3 C 33,2 C 6,4 km/h (2 Bft)
31.08.2015 16:00 32,0 C 36 % 1009,5 hPa 0,0 l/m 1,5 km/h (1 Bft) N 1,00 h 0,356 mm 1,3 UV-I 197 W/m 15,0 C 32,0 C 3,8 km/h (1 Bft)
31.08.2015 17:00 31,4 C 36 % 1009,1 hPa 0,0 l/m 0,9 km/h (0 Bft) N 1,00 h 0,178 mm 0,8 UV-I 144 W/m 14,7 C 31,4 C 2,6 km/h (1 Bft)
31.08.2015 18:00 30,5 C 41 % 1008,7 hPa 0,0 l/m 0,4 km/h (0 Bft) N 0,35 h 0,127 mm 0,5 UV-I 52 W/m 15,6 C 30,5 C 1,5 km/h (1 Bft)
31.08.2015 19:00 28,5 C 50 % 1008,5 hPa 0,0 l/m 0,1 km/h (0 Bft) N 0,00 h 0,051 mm 0,0 UV-I 14 W/m 16,9 C 28,5 C 0,5 km/h (0 Bft)
31.08.2015 20:00 25,9 C 60 % 1008,8 hPa 0,0 l/m 0,0 km/h (0 Bft) N 0,00 h 0,025 mm 0,0 UV-I 0 W/m 17,6 C 25,9 C 0,1 km/h (0 Bft)
31.08.2015 21:00 24,2 C 65 % 1009,0 hPa 0,0 l/m 0,0 km/h (0 Bft) N 0,00 h 0,000 mm 0,0 UV-I 0 W/m 17,3 C 24,2 C 0,3 km/h (0 Bft)
31.08.2015 22:00 22,5 C 74 % 1009,1 hPa 0,0 l/m 0,0 km/h (0 Bft) N 0,00 h 0,025 mm 0,0 UV-I 0 W/m 17,7 C 22,5 C 0,2 km/h (0 Bft)
31.08.2015 23:00 21,0 C 80 % 1009,0 hPa 0,0 l/m 0,0 km/h (0 Bft) N 0,00 h 0,025 mm 0,0 UV-I 0 W/m 17,4 C 21,0 C 0,0 km/h (0 Bft)
01.09.2015 00:00 19,9 C 83 % 1008,7 hPa 0,0 l/m 0,0 km/h (0 Bft) N 0,00 h 0,025 mm 0,0 UV-I 0 W/m 16,9 C 19,9 C 0,0 km/h (0 Bft)
01.09.2015 01:00 18,8 C 87 % 1008,6 hPa 0,0 l/m 0,0 km/h (0 Bft) N 0,00 h 0,025 mm 0,0 UV-I 0 W/m 16,5 C 18,8 C 0,0 km/h (0 Bft)
01.09.2015 02:00 17,9 C 89 % 1008,6 hPa 0,0 l/m 0,0 km/h (0 Bft) N 0,00 h 0,000 mm 0,0 UV-I 0 W/m 16,1 C 17,9 C 0,2 km/h (0 Bft)
01.09.2015 03:00 17,4 C 90 % 1008,6 hPa 0,0 l/m 0,0 km/h (0 Bft) N 0,00 h 0,000 mm 0,0 UV-I 0 W/m 15,6 C 17,4 C 0,6 km/h (0 Bft)
01.09.2015 04:00 16,6 C 90 % 1008,5 hPa 0,0 l/m 0,0 km/h (0 Bft) N 0,00 h 0,000 mm 0,0 UV-I 0 W/m 15,0 C 16,6 C 0,0 km/h (0 Bft)
01.09.2015 05:00 16,1 C 92 % 1008,4 hPa 0,0 l/m 0,0 km/h (0 Bft) N 0,00 h 0,000 mm 0,0 UV-I 0 W/m 14,7 C 16,1 C 0,0 km/h (0 Bft)
01.09.2015 06:00 15,5 C 93 % 1008,2 hPa 0,0 l/m 0,0 km/h (0 Bft) N 0,00 h 0,000 mm 0,0 UV-I 10 W/m 14,3 C 15,5 C 0,0 km/h (0 Bft)
01.09.2015 07:00 16,1 C 92 % 1008,2 hPa 0,0 l/m 0,1 km/h (0 Bft) N 0,52 h 0,000 mm 0,5 UV-I 55 W/m 14,8 C 16,1 C 0,4 km/h (0 Bft)
01.09.2015 08:00 19,5 C 82 % 1008,2 hPa 0,0 l/m 0,0 km/h (0 Bft) N 1,00 h 0,025 mm 0,8 UV-I 250 W/m 16,3 C 19,5 C 0,2 km/h (0 Bft)
01.09.2015 09:00 22,7 C 70 % 1007,8 hPa 0,0 l/m 0,2 km/h (0 Bft) N 1,00 h 0,152 mm 1,5 UV-I 289 W/m 16,8 C 22,7 C 0,8 km/h (0 Bft)
01.09.2015 10:00 25,5 C 58 % 1007,7 hPa 0,0 l/m 0,3 km/h (0 Bft) N 1,00 h 0,178 mm 2,9 UV-I 547 W/m 16,5 C 25,5 C 1,3 km/h (1 Bft)
01.09.2015 11:00 28,5 C 46 % 1007,1 hPa 0,0 l/m 2,0 km/h (1 Bft) S 1,00 h 0,356 mm 4,0 UV-I 649 W/m 15,6 C 28,5 C 5,3 km/h (1 Bft)
01.09.2015 12:00 29,8 C 42 % 1006,8 hPa 0,0 l/m 6,4 km/h (2 Bft) W-SW 1,00 h 0,457 mm 4,6 UV-I 706 W/m 15,6 C 29,7 C 11,7 km/h (2 Bft)
01.09.2015 13:00 30,4 C 40 % 1006,3 hPa 0,0 l/m 6,2 km/h (2 Bft) S 1,00 h 0,533 mm 4,9 UV-I 729 W/m 15,2 C 30,4 C 11,7 km/h (2 Bft)
01.09.2015 14:00 30,3 C 39 % 1005,9 hPa 0,0 l/m 7,3 km/h (2 Bft) S 1,00 h 0,559 mm 3,6 UV-I 606 W/m 14,8 C 30,2 C 13,2 km/h (3 Bft)
01.09.2015 15:00 26,9 C 48 % 1006,2 hPa 0,0 l/m 7,2 km/h (2 Bft) W-NW 1,00 h 0,457 mm 1,4 UV-I 190 W/m 14,8 C 26,6 C 13,8 km/h (3 Bft)
01.09.2015 16:00 23,1 C 76 % 1007,3 hPa 2,4 l/m 2,3 km/h (1 Bft) N 0,80 h 0,178 mm 0,9 UV-I 119 W/m 18,4 C 22,9 C 4,7 km/h (1 Bft)
01.09.2015 17:00 22,3 C 73 % 1007,5 hPa 0,0 l/m 5,9 km/h (2 Bft) W 1,00 h 0,076 mm 0,7 UV-I 102 W/m 17,2 C 21,8 C 12,0 km/h (2 Bft)
01.09.2015 18:00 20,3 C 78 % 1008,3 hPa 1,6 l/m 3,3 km/h (1 Bft) N 0,20 h 0,102 mm 0,0 UV-I 33 W/m 16,3 C 20,0 C 7,2 km/h (2 Bft)
01.09.2015 19:00 18,7 C 91 % 1008,5 hPa 0,0 l/m 0,0 km/h (0 Bft) N 0,00 h 0,025 mm 0,0 UV-I 17 W/m 17,2 C 18,7 C 0,0 km/h (0 Bft)
01.09.2015 20:00 18,4 C 92 % 1009,6 hPa 1,0 l/m 1,6 km/h (1 Bft) N 0,00 h 0,000 mm 0,0 UV-I 0 W/m 17,2 C 18,4 C 4,7 km/h (1 Bft)
01.09.2015 21:00 16,5 C 93 % 1010,5 hPa 2,0 l/m 7,7 km/h (2 Bft) NW 0,00 h 0,000 mm 0,0 UV-I 0 W/m 15,4 C 15,3 C 13,6 km/h (3 Bft)
01.09.2015 22:00 14,8 C 94 % 1011,6 hPa 2,6 l/m 6,8 km/h (2 Bft) NW 0,00 h 0,000 mm 0,0 UV-I 0 W/m 13,8 C 14,1 C 11,1 km/h (2 Bft)
01.09.2015 23:00 14,3 C 95 % 1012,3 hPa 0,0 l/m 5,6 km/h (2 Bft) NW 0,00 h 0,000 mm 0,0 UV-I 0 W/m 13,4 C 14,0 C 10,0 km/h (2 Bft)
02.09.2015 00:00 14,0 C 94 % 1013,2 hPa 0,0 l/m 5,0 km/h (1 Bft) NW 0,00 h 0,000 mm 0,0 UV-I 0 W/m 13,1 C 13,8 C 9,0 km/h (2 Bft)
02.09.2015 01:00 13,8 C 95 % 1014,1 hPa 0,0 l/m 0,7 km/h (0 Bft) N 0,00 h 0,000 mm 0,0 UV-I 0 W/m 13,0 C 13,8 C 1,8 km/h (1 Bft)
02.09.2015 02:00 13,8 C 95 % 1014,5 hPa 0,0 l/m 0,0 km/h (0 Bft) N 0,00 h 0,000 mm 0,0 UV-I 0 W/m 13,0 C 13,8 C 0,3 km/h (0 Bft)
02.09.2015 03:00 13,7 C 94 % 1014,8 hPa 0,0 l/m 2,1 km/h (1 Bft) NW 0,00 h 0,000 mm 0,0 UV-I 0 W/m 12,7 C 13,7 C 4,6 km/h (1 Bft)
02.09.2015 04:00 13,0 C 94 % 1014,9 hPa 0,0 l/m 0,9 km/h (0 Bft) N 0,00 h 0,000 mm 0,0 UV-I 0 W/m 12,0 C 13,0 C 1,9 km/h (1 Bft)
02.09.2015 05:00 12,7 C 94 % 1015,0 hPa 0,0 l/m 0,0 km/h (0 Bft) N 0,00 h 0,000 mm 0,0 UV-I 0 W/m 11,7 C 12,7 C 0,0 km/h (0 Bft)
02.09.2015 06:00 11,9 C 95 % 1015,2 hPa 0,0 l/m 0,0 km/h (0 Bft) N 0,00 h 0,000 mm 0,0 UV-I 9 W/m 11,1 C 11,9 C 0,0 km/h (0 Bft)
02.09.2015 07:00 11,9 C 95 % 1015,6 hPa 0,0 l/m 0,2 km/h (0 Bft) N 0,52 h 0,000 mm 0,5 UV-I 65 W/m 11,1 C 11,9 C 0,8 km/h (0 Bft)
02.09.2015 08:00 13,0 C 90 % 1015,9 hPa 0,0 l/m 1,7 km/h (1 Bft) N 1,00 h 0,025 mm 0,7 UV-I 166 W/m 11,3 C 12,9 C 4,3 km/h (1 Bft)
02.09.2015 09:00 13,9 C 85 % 1016,1 hPa 0,2 l/m 0,9 km/h (0 Bft) N 1,00 h 0,102 mm 1,6 UV-I 370 W/m 11,3 C 13,9 C 2,3 km/h (1 Bft)
02.09.2015 10:00 16,0 C 77 % 1016,3 hPa 0,0 l/m 0,6 km/h (0 Bft) N 1,00 h 0,178 mm 3,0 UV-I 617 W/m 11,9 C 16,0 C 2,1 km/h (1 Bft)
02.09.2015 11:00 16,6 C 73 % 1016,2 hPa 0,0 l/m 0,2 km/h (0 Bft) N 1,00 h 0,305 mm 3,5 UV-I 510 W/m 11,6 C 16,6 C 0,7 km/h (0 Bft)
02.09.2015 12:00 18,0 C 65 % 1015,8 hPa 0,0 l/m 0,1 km/h (0 Bft) N 1,00 h 0,279 mm 4,4 UV-I 631 W/m 11,2 C 18,0 C 1,0 km/h (0 Bft)
02.09.2015 13:00 19,0 C 61 % 1015,5 hPa 0,0 l/m 0,6 km/h (0 Bft) N 1,00 h 0,356 mm 4,2 UV-I 578 W/m 11,3 C 19,0 C 2,2 km/h (1 Bft)
02.09.2015 14:00 18,9 C 59 % 1015,2 hPa 0,0 l/m 0,2 km/h (0 Bft) N 1,00 h 0,330 mm 2,8 UV-I 375 W/m 10,8 C 18,9 C 0,9 km/h (0 Bft)
02.09.2015 15:00 18,5 C 61 % 1014,8 hPa 0,0 l/m 0,1 km/h (0 Bft) N 1,00 h 0,203 mm 2,0 UV-I 285 W/m 10,8 C 18,5 C 0,9 km/h (0 Bft)
02.09.2015 16:00 18,7 C 60 % 1014,7 hPa 0,0 l/m 0,2 km/h (0 Bft) N 1,00 h 0,152 mm 1,5 UV-I 266 W/m 10,7 C 18,7 C 0,8 km/h (0 Bft)
02.09.2015 17:00 18,4 C 62 % 1014,9 hPa 0,0 l/m 0,3 km/h (0 Bft) N 1,00 h 0,152 mm 0,8 UV-I 156 W/m 11,1 C 18,4 C 1,2 km/h (1 Bft)
02.09.2015 18:00 17,9 C 65 % 1014,8 hPa 0,0 l/m 0,0 km/h (0 Bft) N 1,00 h 0,102 mm 0,5 UV-I 100 W/m 11,2 C 17,9 C 0,1 km/h (0 Bft)
02.09.2015 19:00 17,3 C 67 % 1014,8 hPa 0,0 l/m 0,1 km/h (0 Bft) N 0,10 h 0,051 mm 0,0 UV-I 26 W/m 11,2 C 17,3 C 0,4 km/h (0 Bft)
02.09.2015 20:00 15,9 C 78 % 1015,2 hPa 0,0 l/m 0,0 km/h (0 Bft) N 0,00 h 0,025 mm 0,0 UV-I 0 W/m 12,0 C 15,9 C 0,0 km/h (0 Bft)
02.09.2015 21:00 14,4 C 85 % 1015,4 hPa 0,0 l/m 0,0 km/h (0 Bft) N 0,00 h 0,000 mm 0,0 UV-I 0 W/m 12,0 C 14,4 C 0,0 km/h (0 Bft)
02.09.2015 22:00 13,3 C 89 % 1015,2 hPa 0,0 l/m 0,0 km/h (0 Bft) N 0,00 h 0,000 mm 0,0 UV-I 0 W/m 11,5 C 13,3 C 0,0 km/h (0 Bft)
02.09.2015 23:00 12,5 C 90 % 1015,1 hPa 0,0 l/m 0,0 km/h (0 Bft) N 0,00 h 0,000 mm 0,0 UV-I 0 W/m 11,0 C 12,5 C 0,0 km/h (0 Bft)
03.09.2015 00:00 11,8 C 92 % 1015,2 hPa 0,0 l/m 0,4 km/h (0 Bft) N 0,00 h 0,000 mm 0,0 UV-I 0 W/m 10,6 C 11,8 C 1,1 km/h (1 Bft)
03.09.2015 01:00 11,8 C 93 % 1015,1 hPa 0,0 l/m 0,1 km/h (0 Bft) N 0,00 h 0,000 mm 0,0 UV-I 0 W/m 10,6 C 11,8 C 0,1 km/h (0 Bft)
03.09.2015 02:00 11,8 C 93 % 1014,8 hPa 0,0 l/m 0,0 km/h (0 Bft) N 0,00 h 0,000 mm 0,0 UV-I 0 W/m 10,7 C 11,8 C 0,0 km/h (0 Bft)
03.09.2015 03:00 11,4 C 94 % 1014,7 hPa 0,0 l/m 0,1 km/h (0 Bft) N 0,00 h 0,000 mm 0,0 UV-I 0 W/m 10,4 C 11,4 C 0,2 km/h (0 Bft)
03.09.2015 04:00 11,2 C 94 % 1014,4 hPa 0,0 l/m 0,2 km/h (0 Bft) N 0,00 h 0,000 mm 0,0 UV-I 0 W/m 10,3 C 11,2 C 0,3 km/h (0 Bft)
03.09.2015 05:00 10,7 C 95 % 1014,4 hPa 0,0 l/m 0,0 km/h (0 Bft) N 0,00 h 0,000 mm 0,0 UV-I 0 W/m 9,9 C 10,7 C 0,0 km/h (0 Bft)
03.09.2015 06:00 10,1 C 96 % 1014,3 hPa 0,0 l/m 0,0 km/h (0 Bft) N 0,00 h 0,000 mm 0,0 UV-I 15 W/m 9,5 C 10,1 C 0,1 km/h (0 Bft)
03.09.2015 07:00 10,7 C 96 % 1014,1 hPa 0,0 l/m 0,0 km/h (0 Bft) N 0,60 h 0,000 mm 0,0 UV-I 58 W/m 10,0 C 10,7 C 0,0 km/h (0 Bft)
03.09.2015 08:00 12,7 C 92 % 1014,0 hPa 0,0 l/m 0,0 km/h (0 Bft) N 1,00 h 0,025 mm 0,7 UV-I 160 W/m 11,5 C 12,7 C 0,1 km/h (0 Bft)
03.09.2015 09:00 15,5 C 87 % 1013,9 hPa 0,0 l/m 0,9 km/h (0 Bft) N 1,00 h 0,076 mm 1,1 UV-I 280 W/m 13,3 C 15,5 C 2,5 km/h (1 Bft)
03.09.2015 10:00 16,3 C 83 % 1014,0 hPa 0,0 l/m 1,7 km/h (1 Bft) W-NW 1,00 h 0,152 mm 1,7 UV-I 282 W/m 13,3 C 16,3 C 4,6 km/h (1 Bft)
03.09.2015 11:00 17,7 C 74 % 1013,7 hPa 0,0 l/m 2,3 km/h (1 Bft) W-SW 1,00 h 0,152 mm 2,9 UV-I 382 W/m 13,1 C 17,7 C 5,4 km/h (1 Bft)
03.09.2015 12:00 18,0 C 73 % 1013,3 hPa 0,0 l/m 4,0 km/h (1 Bft) S 1,00 h 0,229 mm 2,4 UV-I 324 W/m 13,0 C 17,9 C 7,6 km/h (2 Bft)
03.09.2015 13:00 18,6 C 72 % 1012,7 hPa 0,0 l/m 1,2 km/h (1 Bft) N 1,00 h 0,203 mm 2,3 UV-I 269 W/m 13,5 C 18,6 C 2,7 km/h (1 Bft)
03.09.2015 14:00 17,6 C 75 % 1012,7 hPa 2,2 l/m 3,2 km/h (1 Bft) W-SW 0,48 h 0,152 mm 1,3 UV-I 84 W/m 13,1 C 17,2 C 7,4 km/h (2 Bft)
03.09.2015 15:00 14,2 C 93 % 1013,1 hPa 2,6 l/m 2,2 km/h (1 Bft) N 0,82 h 0,051 mm 1,0 UV-I 125 W/m 13,1 C 14,0 C 4,8 km/h (1 Bft)
03.09.2015 16:00 15,1 C 92 % 1012,7 hPa 0,0 l/m 0,1 km/h (0 Bft) N 1,00 h 0,076 mm 1,1 UV-I 189 W/m 13,7 C 15,1 C 0,3 km/h (0 Bft)
03.09.2015 17:00 15,3 C 89 % 1013,0 hPa 0,0 l/m 0,5 km/h (0 Bft) N 1,00 h 0,102 mm 0,7 UV-I 121 W/m 13,5 C 15,3 C 1,3 km/h (1 Bft)
03.09.2015 18:00 14,9 C 90 % 1012,8 hPa 0,0 l/m 0,0 km/h (0 Bft) N 0,92 h 0,051 mm 0,0 UV-I 60 W/m 13,2 C 14,9 C 0,0 km/h (0 Bft)
03.09.2015 19:00 14,7 C 92 % 1012,9 hPa 0,0 l/m 0,0 km/h (0 Bft) N 0,00 h 0,025 mm 0,0 UV-I 26 W/m 13,4 C 14,7 C 0,0 km/h (0 Bft)
03.09.2015 20:00 14,0 C 93 % 1013,4 hPa 0,0 l/m 0,0 km/h (0 Bft) N 0,00 h 0,025 mm 0,0 UV-I 0 W/m 12,9 C 14,0 C 0,1 km/h (0 Bft)
03.09.2015 21:00 13,0 C 95 % 1013,6 hPa 0,0 l/m 0,0 km/h (0 Bft) N 0,00 h 0,000 mm 0,0 UV-I 0 W/m 12,2 C 13,0 C 0,0 km/h (0 Bft)
03.09.2015 22:00 12,0 C 96 % 1013,9 hPa 0,0 l/m 0,0 km/h (0 Bft) N 0,00 h 0,000 mm 0,0 UV-I 0 W/m 11,3 C 12,0 C 0,0 km/h (0 Bft)
03.09.2015 23:00 11,6 C 97 % 1014,1 hPa 0,0 l/m 0,1 km/h (0 Bft) N 0,00 h 0,000 mm 0,0 UV-I 0 W/m 11,1 C 11,6 C 0,3 km/h (0 Bft)
04.09.2015 00:00 12,1 C 97 % 1014,2 hPa 0,0 l/m 0,0 km/h (0 Bft) N 0,00 h 0,000 mm 0,0 UV-I 0 W/m 11,7 C 12,1 C 0,0 km/h (0 Bft)
04.09.2015 01:00 12,3 C 97 % 1014,2 hPa 0,0 l/m 0,0 km/h (0 Bft) N 0,00 h 0,000 mm 0,0 UV-I 0 W/m 11,8 C 12,3 C 0,2 km/h (0 Bft)
04.09.2015 02:00 12,4 C 98 % 1014,0 hPa 0,2 l/m 0,0 km/h (0 Bft) N 0,00 h 0,000 mm 0,0 UV-I 0 W/m 12,0 C 12,4 C 0,0 km/h (0 Bft)
04.09.2015 03:00 12,2 C 98 % 1013,9 hPa 0,0 l/m 0,0 km/h (0 Bft) N 0,00 h 0,000 mm 0,0 UV-I 0 W/m 11,8 C 12,2 C 0,0 km/h (0 Bft)
04.09.2015 04:00 11,9 C 97 % 1013,7 hPa 0,0 l/m 0,0 km/h (0 Bft) N 0,00 h 0,000 mm 0,0 UV-I 0 W/m 11,4 C 11,9 C 0,1 km/h (0 Bft)
04.09.2015 05:00 11,2 C 98 % 1013,7 hPa 0,0 l/m 0,0 km/h (0 Bft) N 0,00 h 0,000 mm 0,0 UV-I 0 W/m 10,8 C 11,2 C 0,0 km/h (0 Bft)
04.09.2015 06:00 10,8 C 98 % 1014,1 hPa 0,0 l/m 0,3 km/h (0 Bft) N 0,00 h 0,000 mm 0,0 UV-I 6 W/m 10,5 C 10,8 C 1,1 km/h (1 Bft)
04.09.2015 07:00 10,9 C 98 % 1014,6 hPa 0,0 l/m 0,1 km/h (0 Bft) N 0,18 h 0,000 mm 0,0 UV-I 28 W/m 10,6 C 10,9 C 0,4 km/h (0 Bft)
04.09.2015 08:00 11,1 C 96 % 1014,8 hPa 0,0 l/m 0,5 km/h (0 Bft) N 0,85 h 0,025 mm 0,6 UV-I 81 W/m 10,6 C 11,1 C 2,1 km/h (1 Bft)
04.09.2015 09:00 13,3 C 89 % 1015,1 hPa 0,0 l/m 1,1 km/h (1 Bft) N 1,00 h 0,051 mm 1,4 UV-I 378 W/m 11,5 C 13,3 C 2,9 km/h (1 Bft)
04.09.2015 10:00 16,5 C 70 % 1015,2 hPa 0,0 l/m 4,4 km/h (1 Bft) W 1,00 h 0,203 mm 2,6 UV-I 524 W/m 11,0 C 16,3 C 9,1 km/h (2 Bft)
04.09.2015 11:00 17,1 C 59 % 1015,3 hPa 0,0 l/m 6,2 km/h (2 Bft) W-SW 1,00 h 0,305 mm 2,9 UV-I 457 W/m 8,9 C 16,6 C 12,2 km/h (2 Bft)
04.09.2015 12:00 16,5 C 61 % 1015,2 hPa 0,0 l/m 4,5 km/h (1 Bft) SW 1,00 h 0,279 mm 2,8 UV-I 355 W/m 9,0 C 16,2 C 9,6 km/h (2 Bft)
04.09.2015 13:00 17,3 C 60 % 1015,2 hPa 0,0 l/m 5,9 km/h (2 Bft) S 1,00 h 0,229 mm 4,5 UV-I 679 W/m 9,4 C 16,9 C 11,3 km/h (2 Bft)
04.09.2015 14:00 17,4 C 57 % 1015,0 hPa 0,0 l/m 3,9 km/h (1 Bft) W 1,00 h 0,406 mm 2,2 UV-I 300 W/m 8,6 C 17,2 C 8,6 km/h (2 Bft)
04.09.2015 15:00 17,4 C 55 % 1014,5 hPa 0,0 l/m 3,5 km/h (1 Bft) W 1,00 h 0,203 mm 1,6 UV-I 228 W/m 8,1 C 17,3 C 7,8 km/h (2 Bft)
04.09.2015 16:00 17,8 C 53 % 1014,0 hPa 0,0 l/m 3,3 km/h (1 Bft) W 1,00 h 0,152 mm 1,6 UV-I 372 W/m 8,1 C 17,7 C 7,8 km/h (2 Bft)
04.09.2015 17:00 17,7 C 52 % 1013,3 hPa 0,0 l/m 3,6 km/h (1 Bft) W-SW 1,00 h 0,229 mm 0,9 UV-I 263 W/m 7,7 C 17,6 C 7,9 km/h (2 Bft)
04.09.2015 18:00 16,9 C 54 % 1013,2 hPa 0,0 l/m 2,8 km/h (1 Bft) W 0,43 h 0,178 mm 0,5 UV-I 55 W/m 7,6 C 16,9 C 6,9 km/h (2 Bft)
04.09.2015 19:00 15,3 C 61 % 1013,6 hPa 0,0 l/m 0,5 km/h (0 Bft) N 0,00 h 0,051 mm 0,0 UV-I 15 W/m 7,9 C 15,3 C 2,3 km/h (1 Bft)
04.09.2015 20:00 14,1 C 69 % 1014,0 hPa 0,0 l/m 0,0 km/h (0 Bft) N 0,00 h 0,025 mm 0,0 UV-I 0 W/m 8,6 C 14,1 C 0,0 km/h (0 Bft)
04.09.2015 21:00 12,4 C 80 % 1014,1 hPa 0,0 l/m 0,0 km/h (0 Bft) N 0,00 h 0,025 mm 0,0 UV-I 0 W/m 9,1 C 12,4 C 0,0 km/h (0 Bft)
04.09.2015 22:00 12,0 C 84 % 1014,1 hPa 0,0 l/m 0,0 km/h (0 Bft) N 0,00 h 0,025 mm 0,0 UV-I 0 W/m 9,3 C 12,0 C 0,0 km/h (0 Bft)
04.09.2015 23:00 11,2 C 86 % 1014,1 hPa 0,0 l/m 0,0 km/h (0 Bft) N 0,00 h 0,000 mm 0,0 UV-I 0 W/m 8,9 C 11,2 C 0,0 km/h (0 Bft)
05.09.2015 00:00 9,5 C 92 % 1014,3 hPa 0,0 l/m 0,0 km/h (0 Bft) N 0,00 h 0,000 mm 0,0 UV-I 0 W/m 8,3 C 9,5 C 0,0 km/h (0 Bft)
05.09.2015 01:00 8,4 C 94 % 1014,2 hPa 0,0 l/m 0,0 km/h (0 Bft) N 0,00 h 0,000 mm 0,0 UV-I 0 W/m 7,4 C 8,4 C 0,0 km/h (0 Bft)
05.09.2015 02:00 7,5 C 94 % 1014,0 hPa 0,0 l/m 0,0 km/h (0 Bft) N 0,00 h 0,000 mm 0,0 UV-I 0 W/m 6,6 C 7,5 C 0,0 km/h (0 Bft)
05.09.2015 03:00 6,9 C 95 % 1014,0 hPa 0,0 l/m 0,0 km/h (0 Bft) N 0,00 h 0,000 mm 0,0 UV-I 0 W/m 6,1 C 6,9 C 0,0 km/h (0 Bft)
05.09.2015 04:00 6,5 C 95 % 1013,7 hPa 0,0 l/m 0,9 km/h (0 Bft) N 0,00 h 0,000 mm 0,0 UV-I 0 W/m 5,7 C 6,5 C 1,6 km/h (1 Bft)
05.09.2015 05:00 6,4 C 93 % 1013,6 hPa 0,0 l/m 1,1 km/h (1 Bft) N 0,00 h 0,000 mm 0,0 UV-I 0 W/m 5,4 C 6,4 C 1,9 km/h (1 Bft)
05.09.2015 06:00 6,4 C 93 % 1013,8 hPa 0,0 l/m 2,6 km/h (1 Bft) O-NO 0,00 h 0,000 mm 0,0 UV-I 6 W/m 5,3 C 6,4 C 4,2 km/h (1 Bft)
05.09.2015 07:00 5,9 C 93 % 1014,2 hPa 0,0 l/m 1,3 km/h (1 Bft) S-SO 0,22 h 0,000 mm 0,0 UV-I 36 W/m 4,9 C 5,9 C 2,6 km/h (1 Bft)
05.09.2015 08:00 9,4 C 85 % 1014,3 hPa 0,0 l/m 0,3 km/h (0 Bft) N 1,00 h 0,025 mm 0,7 UV-I 252 W/m 7,0 C 9,4 C 1,6 km/h (1 Bft)
05.09.2015 09:00 12,9 C 73 % 1014,3 hPa 0,0 l/m 3,3 km/h (1 Bft) W-SW 1,00 h 0,127 mm 1,5 UV-I 435 W/m 8,2 C 12,8 C 8,4 km/h (2 Bft)
05.09.2015 10:00 14,6 C 66 % 1014,5 hPa 0,0 l/m 6,9 km/h (2 Bft) W-SW 1,00 h 0,229 mm 2,7 UV-I 577 W/m 8,2 C 13,9 C 14,0 km/h (3 Bft)
05.09.2015 11:00 15,4 C 62 % 1014,5 hPa 0,0 l/m 8,1 km/h (2 Bft) W-SW 1,00 h 0,330 mm 3,2 UV-I 511 W/m 8,1 C 14,2 C 16,1 km/h (3 Bft)
05.09.2015 12:00 15,1 C 63 % 1014,4 hPa 0,0 l/m 8,1 km/h (2 Bft) W-SW 1,00 h 0,279 mm 3,0 UV-I 368 W/m 8,1 C 13,6 C 14,6 km/h (3 Bft)
05.09.2015 13:00 15,0 C 64 % 1014,3 hPa 0,0 l/m 9,2 km/h (2 Bft) W 0,98 h 0,229 mm 1,6 UV-I 182 W/m 8,3 C 13,4 C 16,3 km/h (3 Bft)
05.09.2015 14:00 14,4 C 67 % 1014,3 hPa 0,0 l/m 9,2 km/h (2 Bft) W 1,00 h 0,127 mm 1,2 UV-I 133 W/m 8,4 C 12,8 C 15,6 km/h (3 Bft)
05.09.2015 15:00 15,2 C 66 % 1014,3 hPa 0,0 l/m 9,6 km/h (2 Bft) W 1,00 h 0,102 mm 1,9 UV-I 253 W/m 8,9 C 13,5 C 16,1 km/h (3 Bft)
05.09.2015 16:00 14,5 C 69 % 1014,3 hPa 0,0 l/m 9,1 km/h (2 Bft) W 1,00 h 0,178 mm 0,8 UV-I 114 W/m 8,9 C 12,8 C 15,1 km/h (3 Bft)
05.09.2015 17:00 14,8 C 68 % 1014,2 hPa 0,2 l/m 9,6 km/h (2 Bft) W 1,00 h 0,102 mm 0,9 UV-I 133 W/m 8,9 C 13,0 C 16,0 km/h (3 Bft)
05.09.2015 18:00 14,3 C 69 % 1014,0 hPa 0,0 l/m 4,7 km/h (1 Bft) W 0,62 h 0,102 mm 0,5 UV-I 61 W/m 8,6 C 14,0 C 10,3 km/h (2 Bft)
05.09.2015 19:00 13,1 C 74 % 1014,2 hPa 0,0 l/m 8,3 km/h (2 Bft) W-SW 0,00 h 0,051 mm 0,0 UV-I 8 W/m 8,6 C 11,9 C 14,2 km/h (3 Bft)
05.09.2015 20:00 11,8 C 82 % 1014,5 hPa 0,0 l/m 4,1 km/h (1 Bft) SW 0,00 h 0,025 mm 0,0 UV-I 0 W/m 8,8 C 11,7 C 7,9 km/h (2 Bft)
05.09.2015 21:00 11,6 C 84 % 1014,7 hPa 0,0 l/m 4,3 km/h (1 Bft) W-SW 0,00 h 0,025 mm 0,0 UV-I 0 W/m 9,0 C 11,5 C 8,5 km/h (2 Bft)
05.09.2015 22:00 11,1 C 89 % 1014,7 hPa 0,6 l/m 6,0 km/h (2 Bft) W-SW 0,00 h 0,025 mm 0,0 UV-I 0 W/m 9,4 C 10,7 C 10,6 km/h (2 Bft)
05.09.2015 23:00 10,4 C 92 % 1014,7 hPa 0,2 l/m 7,5 km/h (2 Bft) W-SW 0,00 h 0,025 mm 0,0 UV-I 0 W/m 9,1 C 9,4 C 12,3 km/h (2 Bft)
06.09.2015 00:00 10,2 C 93 % 1014,8 hPa 0,2 l/m 6,7 km/h (2 Bft) W-SW 0,00 h 0,000 mm 0,0 UV-I 0 W/m 9,1 C 9,5 C 11,7 km/h (2 Bft)
06.09.2015 01:00 9,9 C 92 % 1014,9 hPa 0,4 l/m 7,2 km/h (2 Bft) W 0,00 h 0,000 mm 0,0 UV-I 0 W/m 8,7 C 8,9 C 12,3 km/h (2 Bft)
06.09.2015 02:00 9,2 C 92 % 1015,0 hPa 0,0 l/m 3,6 km/h (1 Bft) W-SW 0,00 h 0,000 mm 0,0 UV-I 0 W/m 8,0 C 9,2 C 6,3 km/h (2 Bft)
06.09.2015 03:00 8,8 C 93 % 1015,2 hPa 0,0 l/m 5,3 km/h (1 Bft) W 0,00 h 0,000 mm 0,0 UV-I 0 W/m 7,7 C 8,6 C 9,0 km/h (2 Bft)
06.09.2015 04:00 8,5 C 91 % 1015,4 hPa 0,0 l/m 5,5 km/h (2 Bft) W 0,00 h 0,000 mm 0,0 UV-I 0 W/m 7,2 C 8,3 C 9,0 km/h (2 Bft)
06.09.2015 05:00 8,5 C 92 % 1015,6 hPa 0,0 l/m 4,3 km/h (1 Bft) W-SW 0,00 h 0,000 mm 0,0 UV-I 0 W/m 7,2 C 8,3 C 7,2 km/h (2 Bft)
06.09.2015 06:00 8,1 C 89 % 1016,0 hPa 0,0 l/m 4,9 km/h (1 Bft) W 0,00 h 0,000 mm 0,0 UV-I 10 W/m 6,4 C 7,9 C 8,4 km/h (2 Bft)
06.09.2015 07:00 8,2 C 90 % 1016,7 hPa 0,0 l/m 4,2 km/h (1 Bft) SW 0,42 h 0,000 mm 0,0 UV-I 47 W/m 6,6 C 7,9 C 7,9 km/h (2 Bft)
06.09.2015 08:00 8,8 C 86 % 1017,1 hPa 0,0 l/m 8,4 km/h (2 Bft) W 0,72 h 0,025 mm 0,5 UV-I 86 W/m 6,5 C 7,0 C 14,2 km/h (3 Bft)
06.09.2015 09:00 9,0 C 84 % 1017,6 hPa 0,0 l/m 9,1 km/h (2 Bft) W 0,93 h 0,051 mm 0,7 UV-I 105 W/m 6,4 C 7,0 C 15,8 km/h (3 Bft)
06.09.2015 10:00 9,8 C 79 % 1018,1 hPa 0,2 l/m 9,8 km/h (2 Bft) W 1,00 h 0,051 mm 1,3 UV-I 154 W/m 6,3 C 7,5 C 17,3 km/h (3 Bft)
06.09.2015 11:00 10,4 C 77 % 1018,6 hPa 0,0 l/m 12,1 km/h (2 Bft) W 1,00 h 0,102 mm 1,6 UV-I 180 W/m 6,5 C 7,1 C 19,9 km/h (4 Bft)
06.09.2015 12:00 10,4 C 78 % 1019,1 hPa 0,0 l/m 12,6 km/h (3 Bft) W-SW 1,00 h 0,127 mm 1,6 UV-I 181 W/m 6,8 C 6,9 C 21,4 km/h (4 Bft)
06.09.2015 13:00 10,8 C 77 % 1019,4 hPa 0,0 l/m 12,8 km/h (3 Bft) W-SW 1,00 h 0,127 mm 1,5 UV-I 163 W/m 6,9 C 7,2 C 19,9 km/h (4 Bft)
06.09.2015 14:00 11,2 C 75 % 1019,8 hPa 0,0 l/m 13,1 km/h (3 Bft) W 1,00 h 0,102 mm 1,4 UV-I 169 W/m 6,8 C 7,5 C 21,7 km/h (4 Bft)
06.09.2015 15:00 11,2 C 77 % 1020,4 hPa 0,0 l/m 15,6 km/h (3 Bft) W 1,00 h 0,127 mm 1,2 UV-I 174 W/m 7,3 C 6,5 C 24,8 km/h (4 Bft)
06.09.2015 16:00 11,4 C 77 % 1020,7 hPa 0,0 l/m 14,2 km/h (3 Bft) W 1,00 h 0,127 mm 0,9 UV-I 144 W/m 7,6 C 7,3 C 22,4 km/h (4 Bft)
06.09.2015 17:00 10,9 C 81 % 1021,1 hPa 0,0 l/m 10,3 km/h (2 Bft) W 0,92 h 0,102 mm 0,5 UV-I 76 W/m 7,8 C 8,3 C 16,7 km/h (3 Bft)
06.09.2015 18:00 10,9 C 80 % 1021,2 hPa 0,0 l/m 6,2 km/h (2 Bft) W-SW 0,42 h 0,051 mm 0,0 UV-I 42 W/m 7,6 C 10,0 C 11,4 km/h (2 Bft)
06.09.2015 19:00 10,9 C 79 % 1021,5 hPa 0,0 l/m 2,4 km/h (1 Bft) W-SW 0,00 h 0,025 mm 0,0 UV-I 10 W/m 7,3 C 10,8 C 6,1 km/h (2 Bft)
06.09.2015 20:00 10,8 C 77 % 1022,0 hPa 0,0 l/m 4,5 km/h (1 Bft) W-SW 0,00 h 0,000 mm 0,0 UV-I 0 W/m 6,9 C 10,6 C 9,5 km/h (2 Bft)
06.09.2015 21:00 10,8 C 76 % 1022,3 hPa 0,0 l/m 5,8 km/h (2 Bft) W-SW 0,00 h 0,025 mm 0,0 UV-I 0 W/m 6,7 C 9,9 C 11,3 km/h (2 Bft)
06.09.2015 22:00 10,6 C 78 % 1022,5 hPa 0,0 l/m 7,7 km/h (2 Bft) W-SW 0,00 h 0,025 mm 0,0 UV-I 0 W/m 7,0 C 9,4 C 13,6 km/h (3 Bft)
06.09.2015 23:00 10,1 C 84 % 1022,5 hPa 0,0 l/m 7,4 km/h (2 Bft) W-SW 0,00 h 0,025 mm 0,0 UV-I 0 W/m 7,4 C 9,0 C 13,4 km/h (3 Bft)
Min-Datum _ 05.09.15 31.08.15 01.09.15 - 31.08.15 - - - - - 05.09.15 06.09.15 31.08.15
_ Min-Zeit 07:16 14:54 14:41 - 00:00 - - - - - 07:16 10:57 00:00
Minimum _ 5,6 C 26 % 1005,6 hPa - 0,0 km/h (0 Bft) - - - - - 4,6 C 1,9 C 0,0 km/h (0 Bft)
Max-Datum _ 31.08.15 04.09.15 06.09.15 01.09.15 06.09.15 - 31.08.15 31.08.15 02.09.15 04.09.15 31.08.15 31.08.15 06.09.15
_ Max-Zeit 13:36 01:28 23:57 22:04 10:57 - 08:18 14:00 13:17 13:10 11:24 13:36 15:41
Maximum _ 34,8 C 98 % 1022,7 hPa 2,6 l/m 25,7 km/h
W (4 Bft)
- 0,07 h 0,559 mm 5,6 UV-I 1037 W/m 20,8 C 34,8 C 38,6 km/h
W-SW (6 Bft)
Durchschnitt _ 15,7 C 79 % 1013,7 hPa #16,6 l/m 2,7 km/h (1 Bft) N #75:31 h #15,867 mm 1,9 UV-I 247 W/m 11,5 C 15,3 C 5,1 km/h (1 Bft)